createdAt,value
2019-02-18T02:12:31.386Z,99.90
2019-02-18T02:14:58.229Z,99.90
2019-02-18T02:17:25.117Z,99.90
2019-02-18T02:19:52.234Z,99.90
2019-02-18T02:22:19.066Z,99.90
2019-02-18T02:24:46.217Z,99.90
2019-02-18T10:54:16.971Z,96.40
2019-02-18T10:56:43.813Z,93.30
2019-02-18T10:59:10.688Z,92.60
2019-02-18T11:01:37.808Z,90.30
2019-02-18T11:04:04.652Z,88.70
2019-02-18T11:06:31.494Z,85.90
2019-02-18T11:08:58.646Z,86.30
2019-02-18T11:11:25.637Z,87.80
2019-02-18T11:13:52.377Z,84.60
2019-02-18T11:16:19.485Z,76.10
2019-02-18T11:18:46.325Z,78.40
2019-02-18T11:21:13.172Z,79.00
2019-02-18T11:23:40.322Z,78.50
2019-02-18T11:26:07.164Z,78.30
2019-02-18T11:28:34.312Z,81.30
2019-02-18T11:31:01.208Z,82.90
2019-02-18T11:33:28.307Z,86.80
2019-02-18T11:35:59.777Z,88.60
2019-02-18T11:38:26.654Z,87.20
2019-02-18T11:40:53.449Z,87.60
2019-02-18T11:43:20.288Z,88.60
2019-02-18T11:45:47.132Z,90.30
2019-02-18T11:48:13.975Z,89.00
2019-02-18T11:50:41.142Z,87.00
2019-02-18T11:53:08.276Z,88.10
2019-02-18T11:55:35.119Z,85.90
2019-02-18T11:58:02.270Z,85.30
2019-02-18T12:00:29.117Z,83.40
2019-02-18T12:03:02.784Z,81.80
2019-02-18T12:05:24.478Z,81.50
2019-02-18T12:07:51.309Z,81.00
2019-02-18T12:10:18.452Z,81.90
2019-02-18T14:57:16.548Z,80.50
2019-02-18T14:59:43.700Z,29.30
2019-02-18T15:02:11.074Z,29.30
2019-02-18T15:04:37.999Z,30.10
2019-02-18T15:07:05.459Z,29.80
2019-02-18T15:09:32.301Z,29.70
2019-02-18T15:11:59.454Z,30.80
2019-02-18T15:14:26.606Z,31.00
2019-02-18T15:16:54.063Z,29.70
2019-02-18T15:19:20.905Z,32.50
2019-02-18T15:21:48.055Z,32.70
2019-02-18T15:24:14.897Z,32.50
2019-02-18T15:26:41.745Z,29.70
2019-02-18T15:29:08.894Z,30.40
2019-02-18T15:31:39.069Z,29.70
2019-02-18T15:34:06.266Z,34.00
2019-02-18T15:36:33.420Z,31.40
2019-02-18T15:39:00.269Z,30.40
2019-02-18T15:41:27.419Z,31.70
2019-02-18T15:43:54.255Z,32.30
2019-02-18T15:49:12.827Z,39.00
2019-02-18T15:51:41.685Z,40.80
2019-02-18T15:54:08.969Z,38.00
2019-02-18T15:56:36.118Z,43.00
2019-02-18T16:03:57.770Z,38.40
2019-02-18T16:06:24.725Z,43.80
2019-02-18T16:08:51.877Z,42.80
2019-02-18T16:11:18.713Z,44.10
2019-02-18T16:13:45.873Z,62.40
2019-02-18T16:16:12.979Z,67.40
2019-02-18T16:18:39.862Z,67.70
2019-02-18T16:21:07.012Z,69.60
2019-02-18T16:23:34.161Z,71.50
2019-02-18T16:26:01.004Z,72.80
2019-02-18T16:28:27.847Z,72.90
2019-02-18T16:30:55.036Z,75.00
2019-02-18T16:33:22.147Z,75.10
2019-02-18T16:35:48.990Z,76.20
2019-02-18T16:40:43.299Z,76.60
2019-02-18T16:45:37.906Z,79.00
2019-02-18T17:07:45.634Z,79.40
2019-02-18T17:10:13.463Z,88.80
2019-02-18T17:12:40.559Z,91.10
2019-02-18T17:39:46.009Z,92.80
2019-02-18T17:47:07.108Z,98.50
2019-02-18T17:49:34.566Z,99.90
2019-02-18T17:52:01.409Z,99.40
2019-02-18T17:54:28.253Z,99.90
2019-02-18T17:56:55.403Z,99.90
2019-02-18T17:59:22.261Z,99.90
2019-02-18T18:01:49.090Z,99.90
2019-02-18T18:04:16.240Z,99.90
2019-02-18T18:06:43.083Z,99.90
2019-02-18T18:55:49.168Z,99.90
2019-02-18T18:58:16.065Z,99.90
2019-02-18T19:00:43.469Z,99.90
2019-02-18T19:03:10.312Z,99.90
2019-02-18T19:05:37.204Z,99.90
2019-02-18T19:08:04.308Z,99.90
2019-02-18T19:10:31.464Z,99.90
2019-02-18T19:12:58.300Z,99.90
2019-02-18T19:15:25.450Z,99.90
2019-02-18T19:17:52.908Z,99.90
2019-02-18T19:20:19.754Z,99.90
2019-02-18T19:22:46.595Z,99.90
2019-02-18T19:25:13.485Z,99.90
2019-02-18T19:27:40.588Z,99.90
2019-02-18T19:30:16.649Z,99.90
2019-02-18T19:32:44.109Z,99.90
2019-02-18T19:35:10.951Z,99.90
2019-02-18T19:37:38.150Z,99.90
2019-02-18T19:40:10.370Z,99.90
2019-02-18T20:21:59.100Z,99.90
2019-02-18T20:24:25.952Z,99.90
2019-02-18T20:26:52.785Z,99.90
2019-02-18T20:36:43.234Z,99.90
2019-02-18T20:39:10.689Z,99.90
2019-02-18T21:33:21.826Z,99.90
2019-02-18T21:35:51.741Z,99.90
2019-02-18T21:38:18.892Z,99.90
2019-02-18T21:40:45.736Z,99.90
2019-02-18T21:43:12.579Z,99.90
2019-02-18T21:45:39.754Z,99.90
2019-02-18T21:48:06.575Z,99.90
2019-02-18T22:15:13.161Z,99.90
